createdAt,value
2017-09-25T00:00:02.891Z,0
2017-09-25T00:01:03.550Z,0
2017-09-25T00:02:04.208Z,0
2017-09-25T00:03:04.869Z,0
2017-09-25T00:04:05.578Z,0
2017-09-25T00:05:06.237Z,0
2017-09-25T00:06:06.895Z,0
2017-09-25T00:07:07.554Z,0
2017-09-25T00:08:08.212Z,0
2017-09-25T00:09:08.921Z,0
2017-09-25T00:10:09.579Z,0
2017-09-25T00:11:10.236Z,0
2017-09-25T00:12:10.895Z,0
2017-09-25T00:13:11.556Z,0
2017-09-25T00:14:12.301Z,0
2017-09-25T00:15:12.958Z,0
2017-09-25T00:16:13.618Z,0
2017-09-25T00:17:14.277Z,0
2017-09-25T00:18:14.935Z,0
2017-09-25T00:19:15.646Z,0
2017-09-25T00:20:16.303Z,0
2017-09-25T00:21:16.961Z,0
2017-09-25T00:22:17.618Z,0
2017-09-25T00:23:18.278Z,0
2017-09-25T00:24:19.272Z,0
2017-09-25T00:25:19.929Z,0
2017-09-25T00:26:20.589Z,0
2017-09-25T00:27:21.246Z,0
2017-09-25T00:28:21.904Z,0
2017-09-25T00:29:22.611Z,0
2017-09-25T00:30:23.268Z,0
2017-09-25T00:31:23.925Z,0
2017-09-25T00:32:24.584Z,0
2017-09-25T00:33:25.246Z,0
2017-09-25T00:34:25.988Z,0
2017-09-25T00:35:26.645Z,0
2017-09-25T00:36:27.304Z,0
2017-09-25T00:37:27.964Z,0
2017-09-25T00:38:28.624Z,0
2017-09-25T00:39:29.331Z,0
2017-09-25T00:40:29.990Z,0
2017-09-25T00:41:30.649Z,0
2017-09-25T00:42:31.308Z,0
2017-09-25T00:43:31.966Z,0
2017-09-25T00:44:32.673Z,0
2017-09-25T00:45:33.333Z,0
2017-09-25T00:46:33.990Z,0
2017-09-25T00:47:34.650Z,0
2017-09-25T00:48:35.309Z,0
2017-09-25T00:49:36.016Z,0
2017-09-25T00:50:36.674Z,0
2017-09-25T00:51:37.333Z,0
2017-09-25T00:52:37.990Z,0
2017-09-25T00:53:38.651Z,0
2017-09-25T00:54:39.366Z,0
2017-09-25T00:55:40.018Z,0
2017-09-25T00:56:40.677Z,0
2017-09-25T00:57:41.374Z,0
2017-09-25T00:58:42.033Z,0
2017-09-25T00:59:42.743Z,0
2017-09-25T01:00:43.402Z,0
2017-09-25T01:01:44.061Z,0
2017-09-25T01:02:44.718Z,0
2017-09-25T01:03:45.379Z,0
2017-09-25T01:04:46.086Z,0
2017-09-25T01:05:46.747Z,0
2017-09-25T01:06:47.403Z,0
2017-09-25T01:07:48.061Z,0
2017-09-25T01:08:48.721Z,0
2017-09-25T01:09:49.631Z,0
2017-09-25T01:10:50.289Z,0
2017-09-25T01:11:50.950Z,0
2017-09-25T01:12:51.608Z,0
2017-09-25T01:13:52.266Z,0
2017-09-25T01:14:52.975Z,0
2017-09-25T01:15:53.633Z,0
2017-09-25T01:16:54.292Z,0
2017-09-25T01:17:54.950Z,0
2017-09-25T01:18:55.611Z,0
2017-09-25T01:19:56.318Z,0
2017-09-25T01:20:56.976Z,0
2017-09-25T01:21:57.635Z,0
2017-09-25T01:22:58.293Z,0
2017-09-25T01:23:58.954Z,0
2017-09-25T01:24:59.662Z,0
2017-09-25T01:26:00.320Z,0
2017-09-25T01:27:00.979Z,0
2017-09-25T01:28:01.639Z,0
2017-09-25T01:29:02.336Z,0
2017-09-25T01:30:03.051Z,0
2017-09-25T01:31:03.743Z,0
2017-09-25T01:32:04.404Z,0
2017-09-25T01:33:05.063Z,0
2017-09-25T01:34:05.758Z,0
2017-09-25T01:35:06.466Z,0
2017-09-25T01:36:07.124Z,0
2017-09-25T01:37:07.783Z,0
2017-09-25T01:38:08.440Z,0
2017-09-25T01:39:09.101Z,0
2017-09-25T01:40:10.014Z,0
2017-09-25T01:41:10.670Z,0
2017-09-25T01:42:11.333Z,0
2017-09-25T01:43:11.987Z,0
2017-09-25T01:44:12.648Z,0
2017-09-25T01:45:13.356Z,0
2017-09-25T01:46:14.017Z,0
2017-09-25T01:47:14.673Z,0
2017-09-25T01:48:15.330Z,0
2017-09-25T01:49:15.991Z,0
2017-09-25T01:50:16.699Z,0
2017-09-25T01:51:17.358Z,0
2017-09-25T01:52:18.017Z,0
2017-09-25T01:53:18.675Z,0
2017-09-25T01:54:19.334Z,0
2017-09-25T01:55:20.042Z,0
2017-09-25T01:56:20.699Z,0
2017-09-25T01:57:21.358Z,0
2017-09-25T01:58:22.018Z,0
2017-09-25T01:59:22.675Z,0
2017-09-25T02:00:23.386Z,0
2017-09-25T02:01:24.043Z,0
2017-09-25T02:02:24.699Z,0
2017-09-25T02:03:25.365Z,0
2017-09-25T02:04:26.017Z,0
2017-09-25T02:05:26.726Z,0
2017-09-25T02:06:27.385Z,0
2017-09-25T02:07:28.043Z,0
2017-09-25T02:08:28.702Z,0
2017-09-25T02:09:29.359Z,0
2017-09-25T02:10:30.070Z,0
2017-09-25T02:11:30.730Z,0
2017-09-25T02:12:31.387Z,0
2017-09-25T02:13:32.045Z,0
2017-09-25T02:14:32.704Z,0
2017-09-25T02:15:33.412Z,0
2017-09-25T02:16:34.072Z,0
2017-09-25T02:17:34.731Z,0
2017-09-25T02:18:35.389Z,0
2017-09-25T02:19:36.048Z,0
2017-09-25T02:20:36.755Z,0
2017-09-25T02:21:37.415Z,0
2017-09-25T02:22:38.075Z,0
2017-09-25T02:23:38.732Z,0
2017-09-25T02:24:39.391Z,0
2017-09-25T02:25:40.100Z,0
2017-09-25T02:26:40.757Z,0
2017-09-25T02:27:41.421Z,0
2017-09-25T02:28:42.075Z,0
2017-09-25T02:29:42.735Z,0
2017-09-25T02:30:43.645Z,0
2017-09-25T02:31:44.305Z,0
2017-09-25T02:32:44.963Z,0
2017-09-25T02:33:45.621Z,0
2017-09-25T02:34:46.280Z,0
2017-09-25T02:35:46.988Z,0
2017-09-25T02:36:47.647Z,0
2017-09-25T02:37:48.306Z,0
2017-09-25T02:38:48.965Z,0
2017-09-25T02:39:49.624Z,0
2017-09-25T02:40:50.330Z,0
2017-09-25T02:41:50.989Z,0
2017-09-25T02:42:51.649Z,0
2017-09-25T02:43:52.307Z,0
2017-09-25T02:44:52.966Z,0
2017-09-25T02:45:53.676Z,0
2017-09-25T02:46:54.340Z,0
2017-09-25T02:47:55.029Z,0
2017-09-25T02:48:55.687Z,0
2017-09-25T02:49:56.346Z,0
2017-09-25T02:50:57.054Z,0
2017-09-25T02:51:57.713Z,0
2017-09-25T02:52:58.372Z,0
2017-09-25T02:53:59.030Z,0
2017-09-25T02:54:59.689Z,0
2017-09-25T02:56:00.396Z,0
2017-09-25T02:57:01.055Z,0
2017-09-25T02:58:01.714Z,0
2017-09-25T02:59:02.376Z,0
2017-09-25T03:00:03.032Z,0
2017-09-25T03:01:03.741Z,0
2017-09-25T03:02:04.400Z,0
2017-09-25T03:03:05.057Z,0
2017-09-25T03:04:05.717Z,0
2017-09-25T03:05:06.375Z,0
2017-09-25T03:06:07.084Z,0
2017-09-25T03:07:07.744Z,0
2017-09-25T03:08:08.400Z,0
2017-09-25T03:09:09.062Z,0
2017-09-25T03:10:09.721Z,0
2017-09-25T03:11:10.464Z,0
2017-09-25T03:12:11.158Z,0
2017-09-25T03:13:11.819Z,0
2017-09-25T03:14:12.477Z,0
2017-09-25T03:15:13.134Z,0
2017-09-25T03:16:13.844Z,0
2017-09-25T03:17:14.503Z,0
2017-09-25T03:18:15.162Z,0
2017-09-25T03:19:15.820Z,0
2017-09-25T03:20:16.479Z,0
2017-09-25T03:21:17.188Z,0
2017-09-25T03:22:17.846Z,0
2017-09-25T03:23:18.504Z,0
2017-09-25T03:24:19.164Z,0
2017-09-25T03:25:19.821Z,0
2017-09-25T03:26:20.530Z,0
2017-09-25T03:27:21.226Z,0
2017-09-25T03:28:21.883Z,0
2017-09-25T03:29:22.544Z,0
2017-09-25T03:30:23.202Z,0
2017-09-25T03:31:23.911Z,0
2017-09-25T03:32:24.569Z,0
2017-09-25T03:33:25.227Z,0
2017-09-25T03:34:25.886Z,0
2017-09-25T03:35:26.546Z,0
2017-09-25T03:36:27.253Z,0
2017-09-25T03:37:27.911Z,0
2017-09-25T03:38:28.569Z,0
2017-09-25T03:39:29.232Z,0
2017-09-25T03:40:29.888Z,0
2017-09-25T03:41:30.596Z,0
2017-09-25T03:42:31.256Z,0
2017-09-25T03:43:31.915Z,0
2017-09-25T03:44:32.573Z,0
2017-09-25T03:45:33.239Z,0
2017-09-25T03:46:33.976Z,0
2017-09-25T03:47:34.633Z,0
2017-09-25T03:48:35.292Z,0
2017-09-25T03:49:35.951Z,0
2017-09-25T03:50:36.611Z,0
2017-09-25T03:51:37.319Z,0
2017-09-25T03:52:37.976Z,0
2017-09-25T03:53:38.634Z,0
2017-09-25T03:54:39.291Z,0
2017-09-25T03:55:39.951Z,0
2017-09-25T03:56:40.658Z,0
2017-09-25T03:57:41.318Z,0
2017-09-25T03:58:41.975Z,0
2017-09-25T03:59:42.632Z,0
2017-09-25T04:00:43.292Z,0
2017-09-25T04:01:44.000Z,0
2017-09-25T04:02:44.658Z,0
2017-09-25T04:03:45.317Z,0
2017-09-25T04:04:45.978Z,0
2017-09-25T04:05:46.634Z,0
2017-09-25T04:06:47.348Z,0
2017-09-25T04:07:48.003Z,0
2017-09-25T04:08:48.660Z,0
2017-09-25T04:09:49.319Z,0
2017-09-25T04:10:49.977Z,0
2017-09-25T04:11:50.687Z,0
2017-09-25T04:12:51.348Z,0
2017-09-25T04:13:52.005Z,0
2017-09-25T04:14:52.665Z,0
2017-09-25T04:15:53.359Z,0
2017-09-25T04:16:54.078Z,0
2017-09-25T04:17:54.729Z,0
2017-09-25T04:18:55.437Z,0
2017-09-25T04:19:56.120Z,0
2017-09-25T04:20:56.779Z,0
2017-09-25T04:21:57.487Z,0
2017-09-25T04:22:58.145Z,0
2017-09-25T04:23:58.803Z,0
2017-09-25T04:24:59.462Z,0
2017-09-25T04:26:00.122Z,0
2017-09-25T04:27:00.833Z,0
2017-09-25T04:28:01.494Z,0
2017-09-25T04:29:02.152Z,0
2017-09-25T04:30:02.810Z,0
2017-09-25T04:31:03.472Z,0
2017-09-25T04:32:04.178Z,0
2017-09-25T04:33:04.837Z,0
2017-09-25T04:34:05.494Z,0
2017-09-25T04:35:06.152Z,0
2017-09-25T04:36:06.810Z,0
2017-09-25T04:37:07.517Z,0
2017-09-25T04:38:08.177Z,0
2017-09-25T04:39:08.837Z,0
2017-09-25T04:40:09.494Z,0
2017-09-25T04:41:10.152Z,0
2017-09-25T04:42:10.860Z,0
2017-09-25T04:43:11.519Z,0
2017-09-25T04:44:12.177Z,0
2017-09-25T04:45:12.836Z,0
2017-09-25T04:46:13.495Z,0
2017-09-25T04:47:14.203Z,0
2017-09-25T04:48:14.861Z,0
2017-09-25T04:49:15.521Z,0
2017-09-25T04:50:16.180Z,0
2017-09-25T04:51:16.838Z,0
2017-09-25T04:52:17.546Z,0
2017-09-25T04:53:18.208Z,0
2017-09-25T04:54:18.865Z,0
2017-09-25T04:55:19.526Z,0
2017-09-25T04:56:20.185Z,0
2017-09-25T04:57:20.893Z,0
2017-09-25T04:58:21.553Z,0
2017-09-25T04:59:22.214Z,0
2017-09-25T05:00:22.877Z,0
2017-09-25T05:01:23.533Z,0
2017-09-25T05:02:24.254Z,0
2017-09-25T05:03:24.904Z,0
2017-09-25T05:04:25.563Z,0
2017-09-25T05:05:26.222Z,0
2017-09-25T05:06:26.882Z,0
2017-09-25T05:07:27.591Z,0
2017-09-25T05:08:28.251Z,0
2017-09-25T05:09:28.911Z,0
2017-09-25T05:10:29.570Z,0
2017-09-25T05:11:30.232Z,0
2017-09-25T05:12:30.940Z,0
2017-09-25T05:13:31.599Z,0
2017-09-25T05:14:32.296Z,0
2017-09-25T05:15:32.958Z,5
2017-09-25T05:16:33.614Z,5
2017-09-25T05:17:34.324Z,5
2017-09-25T05:18:34.985Z,5
2017-09-25T05:19:35.644Z,5
2017-09-25T05:20:36.306Z,5
2017-09-25T05:21:36.969Z,5
2017-09-25T05:22:37.678Z,5
2017-09-25T05:23:38.339Z,5
2017-09-25T05:24:38.998Z,5
2017-09-25T05:25:39.661Z,5
2017-09-25T05:26:40.323Z,11
2017-09-25T05:27:41.034Z,11
2017-09-25T05:28:41.695Z,11
2017-09-25T05:29:42.357Z,11
2017-09-25T05:30:43.020Z,11
2017-09-25T05:31:43.681Z,11
2017-09-25T05:32:44.393Z,16
2017-09-25T05:33:45.054Z,16
2017-09-25T05:34:45.715Z,16
2017-09-25T05:35:46.377Z,16
2017-09-25T05:36:47.044Z,16
2017-09-25T05:37:47.751Z,16
2017-09-25T05:38:48.413Z,16
2017-09-25T05:39:49.082Z,16
2017-09-25T05:40:49.740Z,16
2017-09-25T05:41:50.401Z,16
2017-09-25T05:42:51.113Z,22
2017-09-25T05:43:51.772Z,22
2017-09-25T05:44:52.437Z,22
2017-09-25T05:45:53.097Z,22
2017-09-25T05:46:53.760Z,22
2017-09-25T05:47:54.507Z,22
2017-09-25T05:48:55.168Z,28
2017-09-25T05:49:55.832Z,28
2017-09-25T05:50:56.528Z,28
2017-09-25T05:51:57.188Z,33
2017-09-25T05:52:58.150Z,33
2017-09-25T05:53:58.810Z,33
2017-09-25T05:54:59.509Z,33
2017-09-25T05:56:00.170Z,33
2017-09-25T05:57:00.830Z,33
2017-09-25T05:58:01.542Z,39
2017-09-25T05:59:02.241Z,39
2017-09-25T06:00:02.907Z,39
2017-09-25T06:01:03.564Z,39
2017-09-25T06:02:04.223Z,39
2017-09-25T06:03:04.933Z,39
2017-09-25T06:04:05.593Z,39
2017-09-25T06:05:06.254Z,33
2017-09-25T06:06:06.914Z,33
2017-09-25T06:07:07.576Z,28
2017-09-25T06:08:08.289Z,28
2017-09-25T06:09:08.949Z,33
2017-09-25T06:10:09.609Z,33
2017-09-25T06:11:10.269Z,33
2017-09-25T06:12:10.930Z,33
2017-09-25T06:13:11.640Z,33
2017-09-25T06:14:12.301Z,39
2017-09-25T06:15:12.964Z,33
2017-09-25T06:16:13.627Z,33
2017-09-25T06:17:14.288Z,33
2017-09-25T06:18:15.000Z,33
2017-09-25T06:19:15.657Z,39
2017-09-25T06:20:16.319Z,39
2017-09-25T06:21:16.980Z,45
2017-09-25T06:22:17.639Z,45
2017-09-25T06:23:18.352Z,45
2017-09-25T06:24:19.013Z,50
2017-09-25T06:25:19.674Z,50
2017-09-25T06:26:20.334Z,50
2017-09-25T06:27:21.001Z,45
2017-09-25T06:28:21.707Z,45
2017-09-25T06:29:22.367Z,45
2017-09-25T06:30:23.070Z,45
2017-09-25T06:31:23.729Z,45
2017-09-25T06:32:24.388Z,45
2017-09-25T06:33:25.102Z,45
2017-09-25T06:34:25.760Z,50
2017-09-25T06:35:26.422Z,50
2017-09-25T06:36:27.084Z,61
2017-09-25T06:37:27.747Z,67
2017-09-25T06:38:28.458Z,67
2017-09-25T06:39:29.123Z,67
2017-09-25T06:40:29.786Z,67
2017-09-25T06:41:30.449Z,61
2017-09-25T06:42:31.110Z,61
2017-09-25T06:43:31.821Z,61
2017-09-25T06:44:32.482Z,61
2017-09-25T06:45:33.148Z,56
2017-09-25T06:46:33.804Z,56
2017-09-25T06:47:34.467Z,56
2017-09-25T06:48:35.181Z,61
2017-09-25T06:49:35.843Z,61
2017-09-25T06:50:36.507Z,61
2017-09-25T06:51:37.168Z,67
2017-09-25T06:52:37.830Z,67
2017-09-25T06:53:38.544Z,67
2017-09-25T06:54:39.207Z,67
2017-09-25T06:55:39.906Z,67
2017-09-25T06:56:40.568Z,73
2017-09-25T06:57:41.231Z,78
2017-09-25T06:58:41.944Z,78
2017-09-25T06:59:42.607Z,84
2017-09-25T07:00:43.269Z,84
2017-09-25T07:01:43.930Z,84
2017-09-25T07:02:44.590Z,84
2017-09-25T07:03:45.303Z,78
2017-09-25T07:04:46.002Z,78
2017-09-25T07:05:46.664Z,73
2017-09-25T07:06:47.329Z,73
2017-09-25T07:07:47.992Z,67
2017-09-25T07:08:48.704Z,61
2017-09-25T07:09:49.367Z,61
2017-09-25T07:10:50.065Z,67
2017-09-25T07:11:50.726Z,78
2017-09-25T07:12:51.387Z,90
2017-09-25T07:13:52.101Z,101
2017-09-25T07:14:52.764Z,101
2017-09-25T07:15:53.428Z,95
2017-09-25T07:16:54.092Z,84
2017-09-25T07:17:54.755Z,78
2017-09-25T07:18:55.467Z,78
2017-09-25T07:19:56.128Z,78
2017-09-25T07:20:56.791Z,73
2017-09-25T07:21:57.452Z,78
2017-09-25T07:22:58.114Z,78
2017-09-25T07:23:58.864Z,67
2017-09-25T07:24:59.528Z,73
2017-09-25T07:26:00.192Z,78
2017-09-25T07:27:00.855Z,84
2017-09-25T07:28:01.516Z,95
2017-09-25T07:29:02.231Z,118
2017-09-25T07:30:02.895Z,118
2017-09-25T07:31:03.558Z,118
2017-09-25T07:32:04.221Z,129
2017-09-25T07:33:04.888Z,129
2017-09-25T07:34:05.635Z,129
2017-09-25T07:35:06.299Z,123
2017-09-25T07:36:06.964Z,135
2017-09-25T07:37:07.629Z,151
2017-09-25T07:38:08.291Z,168
2017-09-25T07:39:09.006Z,168
2017-09-25T07:40:09.668Z,157
2017-09-25T07:41:10.334Z,146
2017-09-25T07:42:10.994Z,135
2017-09-25T07:43:11.657Z,129
2017-09-25T07:44:12.371Z,118
2017-09-25T07:45:13.034Z,101
2017-09-25T07:46:13.695Z,95
2017-09-25T07:47:14.362Z,106
2017-09-25T07:48:15.026Z,123
2017-09-25T07:49:15.741Z,118
2017-09-25T07:50:16.410Z,118
2017-09-25T07:51:17.105Z,118
2017-09-25T07:52:17.769Z,95
2017-09-25T07:53:18.431Z,84
2017-09-25T07:54:19.147Z,84
2017-09-25T07:55:19.807Z,84
2017-09-25T07:56:20.468Z,84
2017-09-25T07:57:21.133Z,78
2017-09-25T07:58:21.832Z,78
2017-09-25T07:59:22.544Z,73
2017-09-25T08:00:23.207Z,67
2017-09-25T08:01:23.872Z,61
2017-09-25T08:02:24.530Z,61
2017-09-25T08:03:25.192Z,61
2017-09-25T08:04:25.904Z,56
2017-09-25T08:05:26.573Z,78
2017-09-25T08:06:27.230Z,95
2017-09-25T08:07:27.895Z,129
2017-09-25T08:08:28.558Z,163
2017-09-25T08:09:29.274Z,174
2017-09-25T08:10:29.972Z,191
2017-09-25T08:11:30.636Z,213
2017-09-25T08:12:31.335Z,208
2017-09-25T08:13:31.999Z,213
2017-09-25T08:14:32.717Z,241
2017-09-25T08:15:33.414Z,275
2017-09-25T08:16:34.078Z,292
2017-09-25T08:17:34.740Z,292
2017-09-25T08:18:35.404Z,275
2017-09-25T08:19:36.119Z,264
2017-09-25T08:20:36.783Z,258
2017-09-25T08:21:37.448Z,241
2017-09-25T08:22:38.111Z,247
2017-09-25T08:23:38.775Z,247
2017-09-25T08:24:39.490Z,241
2017-09-25T08:25:40.155Z,241
2017-09-25T08:26:40.822Z,253
2017-09-25T08:27:41.487Z,230
2017-09-25T08:28:42.152Z,202
2017-09-25T08:29:42.867Z,180
2017-09-25T08:30:43.530Z,185
2017-09-25T08:31:44.194Z,151
2017-09-25T08:32:44.895Z,118
2017-09-25T08:33:45.559Z,112
2017-09-25T08:34:46.274Z,101
2017-09-25T08:35:46.976Z,90
2017-09-25T08:36:47.639Z,78
2017-09-25T08:37:48.303Z,84
2017-09-25T08:38:48.968Z,90
2017-09-25T08:39:49.682Z,123
2017-09-25T08:40:50.346Z,163
2017-09-25T08:41:51.010Z,219
2017-09-25T08:42:51.675Z,253
2017-09-25T08:43:52.340Z,264
2017-09-25T08:44:53.052Z,241
2017-09-25T08:45:53.754Z,241
2017-09-25T08:46:54.420Z,270
2017-09-25T08:47:55.086Z,303
2017-09-25T08:48:55.749Z,348
2017-09-25T08:49:56.468Z,365
2017-09-25T08:50:57.129Z,354
2017-09-25T08:51:57.795Z,354
2017-09-25T08:52:58.459Z,360
2017-09-25T08:53:59.160Z,393
2017-09-25T08:54:59.876Z,405
2017-09-25T08:56:00.541Z,405
2017-09-25T08:57:01.205Z,388
2017-09-25T08:58:01.872Z,382
2017-09-25T08:59:02.538Z,393
2017-09-25T09:00:03.255Z,399
2017-09-25T09:01:03.922Z,393
2017-09-25T09:02:04.586Z,382
2017-09-25T09:03:05.252Z,360
2017-09-25T09:04:05.922Z,331
2017-09-25T09:05:06.632Z,292
2017-09-25T09:06:07.334Z,241
2017-09-25T09:07:08.003Z,191
2017-09-25T09:08:08.663Z,185
2017-09-25T09:09:09.327Z,219
2017-09-25T09:10:10.045Z,225
2017-09-25T09:11:10.709Z,225
2017-09-25T09:12:11.376Z,225
2017-09-25T09:13:12.044Z,225
2017-09-25T09:14:12.746Z,225
2017-09-25T09:15:13.461Z,236
2017-09-25T09:16:14.126Z,230
2017-09-25T09:17:14.795Z,241
2017-09-25T09:18:15.458Z,247
2017-09-25T09:19:16.124Z,230
2017-09-25T09:20:16.838Z,230
2017-09-25T09:21:17.506Z,225
2017-09-25T09:22:18.168Z,230
2017-09-25T09:23:18.838Z,264
2017-09-25T09:24:19.500Z,281
2017-09-25T09:25:20.219Z,253
2017-09-25T09:26:20.883Z,236
2017-09-25T09:27:21.553Z,241
2017-09-25T09:28:22.217Z,236
2017-09-25T09:29:22.881Z,236
2017-09-25T09:30:23.596Z,236
2017-09-25T09:31:24.298Z,247
2017-09-25T09:32:24.926Z,281
2017-09-25T09:33:25.592Z,298
2017-09-25T09:34:26.263Z,292
2017-09-25T09:35:26.971Z,281
2017-09-25T09:36:27.635Z,264
2017-09-25T09:37:28.301Z,264
2017-09-25T09:38:28.968Z,292
2017-09-25T09:39:29.632Z,354
2017-09-25T09:40:30.346Z,393
2017-09-25T09:41:31.012Z,360
2017-09-25T09:42:31.679Z,315
2017-09-25T09:43:32.340Z,343
2017-09-25T09:44:33.007Z,416
2017-09-25T09:45:33.725Z,455
2017-09-25T09:46:34.389Z,427
2017-09-25T09:47:35.053Z,405
2017-09-25T09:48:35.717Z,376
2017-09-25T09:49:36.384Z,343
2017-09-25T09:50:37.100Z,298
2017-09-25T09:51:37.766Z,270
2017-09-25T09:52:38.434Z,275
2017-09-25T09:53:39.101Z,320
2017-09-25T09:54:39.803Z,388
2017-09-25T09:55:40.520Z,416
2017-09-25T09:56:41.185Z,416
2017-09-25T09:57:41.849Z,410
2017-09-25T09:58:42.515Z,376
2017-09-25T09:59:43.183Z,365
2017-09-25T10:00:43.899Z,371
2017-09-25T10:01:44.564Z,382
2017-09-25T10:02:45.230Z,393
2017-09-25T10:03:45.895Z,376
2017-09-25T10:04:46.564Z,343
2017-09-25T10:05:47.276Z,354
2017-09-25T10:06:47.944Z,360
2017-09-25T10:07:48.608Z,365
2017-09-25T10:08:49.273Z,360
2017-09-25T10:09:49.938Z,365
2017-09-25T10:10:50.655Z,360
2017-09-25T10:11:51.321Z,354
2017-09-25T10:12:51.987Z,331
2017-09-25T10:13:52.654Z,320
2017-09-25T10:14:53.321Z,315
2017-09-25T10:15:54.037Z,326
2017-09-25T10:16:54.705Z,343
2017-09-25T10:17:55.368Z,354
2017-09-25T10:18:56.035Z,365
2017-09-25T10:19:56.702Z,360
2017-09-25T10:20:57.454Z,354
2017-09-25T10:21:58.118Z,354
2017-09-25T10:22:58.786Z,354
2017-09-25T10:23:59.451Z,360
2017-09-25T10:25:00.117Z,376
2017-09-25T10:26:01.032Z,376
2017-09-25T10:27:01.700Z,371
2017-09-25T10:28:02.371Z,382
2017-09-25T10:29:03.034Z,382
2017-09-25T10:30:03.699Z,405
2017-09-25T10:31:04.420Z,478
2017-09-25T10:32:05.079Z,534
2017-09-25T10:33:05.745Z,551
2017-09-25T10:34:06.411Z,540
2017-09-25T10:35:07.075Z,500
2017-09-25T10:36:07.795Z,466
2017-09-25T10:37:08.458Z,461
2017-09-25T10:38:09.123Z,472
2017-09-25T10:39:09.790Z,506
2017-09-25T10:40:10.458Z,545
2017-09-25T10:41:11.173Z,573
2017-09-25T10:42:11.840Z,579
2017-09-25T10:43:12.506Z,585
2017-09-25T10:44:13.172Z,585
2017-09-25T10:45:13.846Z,568
2017-09-25T10:46:14.559Z,562
2017-09-25T10:47:15.223Z,551
2017-09-25T10:48:15.889Z,551
2017-09-25T10:49:16.554Z,545
2017-09-25T10:50:17.220Z,556
2017-09-25T10:51:17.940Z,568
2017-09-25T10:52:18.607Z,573
2017-09-25T10:53:19.276Z,585
2017-09-25T10:54:19.944Z,590
2017-09-25T10:55:20.613Z,601
2017-09-25T10:56:21.334Z,618
2017-09-25T10:57:22.001Z,641
2017-09-25T10:58:22.669Z,652
2017-09-25T10:59:23.338Z,663
2017-09-25T11:00:24.004Z,686
2017-09-25T11:01:24.971Z,686
2017-09-25T11:02:25.637Z,680
2017-09-25T11:03:26.306Z,663
2017-09-25T11:04:26.975Z,630
2017-09-25T11:05:27.643Z,607
2017-09-25T11:06:28.359Z,607
2017-09-25T11:07:29.030Z,618
2017-09-25T11:08:29.695Z,585
2017-09-25T11:09:30.401Z,556
2017-09-25T11:10:31.075Z,534
2017-09-25T11:11:31.786Z,500
2017-09-25T11:12:32.455Z,483
2017-09-25T11:13:33.121Z,478
2017-09-25T11:14:33.788Z,478
2017-09-25T11:15:34.492Z,466
2017-09-25T11:16:35.207Z,466
2017-09-25T11:17:35.874Z,466
2017-09-25T11:18:36.539Z,466
2017-09-25T11:19:37.210Z,455
2017-09-25T11:20:37.877Z,444
2017-09-25T11:21:38.595Z,433
2017-09-25T11:22:39.263Z,421
2017-09-25T11:23:39.935Z,410
2017-09-25T11:24:40.598Z,410
2017-09-25T11:25:41.263Z,405
2017-09-25T11:26:41.980Z,410
2017-09-25T11:27:42.681Z,416
2017-09-25T11:28:43.348Z,416
2017-09-25T11:29:44.015Z,416
2017-09-25T11:30:44.681Z,416
2017-09-25T11:31:45.650Z,427
2017-09-25T11:32:46.319Z,433
2017-09-25T11:33:46.987Z,444
2017-09-25T11:34:47.652Z,455
2017-09-25T11:35:48.318Z,450
2017-09-25T11:36:49.035Z,450
2017-09-25T11:37:49.702Z,444
2017-09-25T11:38:50.369Z,438
2017-09-25T11:39:51.039Z,438
2017-09-25T11:40:51.700Z,444
2017-09-25T11:41:52.417Z,433
2017-09-25T11:42:53.084Z,438
2017-09-25T11:43:53.751Z,444
2017-09-25T11:44:54.418Z,444
2017-09-25T11:45:55.086Z,450
2017-09-25T11:46:55.802Z,461
2017-09-25T11:47:56.470Z,478
2017-09-25T11:48:57.136Z,478
2017-09-25T11:49:57.802Z,483
2017-09-25T11:50:58.476Z,489
2017-09-25T11:51:59.186Z,495
2017-09-25T11:52:59.851Z,500
2017-09-25T11:54:00.518Z,495
2017-09-25T11:55:01.184Z,466
2017-09-25T11:56:01.851Z,433
2017-09-25T11:57:02.569Z,393
2017-09-25T11:58:03.236Z,348
2017-09-25T11:59:03.904Z,309
2017-09-25T12:00:04.570Z,298
2017-09-25T12:01:05.235Z,286
2017-09-25T12:02:05.949Z,298
2017-09-25T12:03:06.613Z,303
2017-09-25T12:04:07.278Z,298
2017-09-25T12:05:07.943Z,292
2017-09-25T12:06:08.606Z,286
2017-09-25T12:07:09.323Z,281
2017-09-25T12:08:09.990Z,264
2017-09-25T12:09:10.654Z,241
2017-09-25T12:10:11.321Z,219
2017-09-25T12:11:11.985Z,208
2017-09-25T12:12:12.699Z,219
2017-09-25T12:13:13.363Z,225
2017-09-25T12:14:14.028Z,236
2017-09-25T12:15:14.694Z,247
2017-09-25T12:16:15.359Z,264
2017-09-25T12:17:16.111Z,281
2017-09-25T12:18:16.777Z,292
2017-09-25T12:19:17.443Z,286
2017-09-25T12:20:18.108Z,286
2017-09-25T12:21:18.772Z,286
2017-09-25T12:22:19.487Z,303
2017-09-25T12:23:20.153Z,331
2017-09-25T12:24:20.819Z,348
2017-09-25T12:25:21.483Z,348
2017-09-25T12:26:22.151Z,343
2017-09-25T12:27:22.873Z,337
2017-09-25T12:28:23.532Z,326
2017-09-25T12:29:24.198Z,320
2017-09-25T12:30:24.862Z,315
2017-09-25T12:31:25.527Z,303
2017-09-25T12:32:26.243Z,286
2017-09-25T12:33:26.905Z,270
2017-09-25T12:34:27.574Z,264
2017-09-25T12:35:28.235Z,253
2017-09-25T12:36:28.899Z,241
2017-09-25T12:37:29.615Z,236
2017-09-25T12:38:30.280Z,230
2017-09-25T12:39:30.948Z,219
2017-09-25T12:40:31.610Z,208
2017-09-25T12:41:32.274Z,191
2017-09-25T12:42:32.990Z,174
2017-09-25T12:43:33.654Z,157
2017-09-25T12:44:34.319Z,151
2017-09-25T12:45:34.982Z,140
2017-09-25T12:46:35.648Z,135
2017-09-25T12:47:36.363Z,123
2017-09-25T12:48:37.029Z,118
2017-09-25T12:49:37.696Z,112
2017-09-25T12:50:38.359Z,106
2017-09-25T12:51:39.024Z,101
2017-09-25T12:52:39.737Z,95
2017-09-25T12:53:40.403Z,90
2017-09-25T12:54:41.065Z,90
2017-09-25T12:55:41.728Z,84
2017-09-25T12:56:42.392Z,84
2017-09-25T12:57:43.107Z,78
2017-09-25T12:58:43.771Z,78
2017-09-25T12:59:44.432Z,78
2017-09-25T13:00:45.094Z,78
2017-09-25T13:01:45.760Z,78
2017-09-25T13:02:46.472Z,84
2017-09-25T13:03:47.135Z,84
2017-09-25T13:04:47.795Z,84
2017-09-25T13:05:48.460Z,84
2017-09-25T13:06:49.123Z,90
2017-09-25T13:07:49.838Z,90
2017-09-25T13:08:50.497Z,95
2017-09-25T13:09:51.160Z,95
2017-09-25T13:10:51.822Z,101
2017-09-25T13:11:52.487Z,101
2017-09-25T13:12:53.201Z,106
2017-09-25T13:13:53.867Z,106
2017-09-25T13:14:54.532Z,112
2017-09-25T13:15:55.195Z,112
2017-09-25T13:16:55.857Z,118
2017-09-25T13:17:56.570Z,118
2017-09-25T13:18:57.233Z,123
2017-09-25T13:19:57.896Z,123
2017-09-25T13:20:58.561Z,129
2017-09-25T13:21:59.262Z,129
2017-09-25T13:23:00.026Z,129
2017-09-25T13:24:00.689Z,135
2017-09-25T13:25:01.389Z,135
2017-09-25T13:26:02.022Z,140
2017-09-25T13:27:02.685Z,140
2017-09-25T13:28:03.448Z,146
2017-09-25T13:29:04.112Z,146
2017-09-25T13:30:04.774Z,151
2017-09-25T13:31:05.437Z,151
2017-09-25T13:32:06.099Z,157
2017-09-25T13:33:06.811Z,157
2017-09-25T13:34:07.513Z,163
2017-09-25T13:35:08.176Z,168
2017-09-25T13:36:08.842Z,180
2017-09-25T13:37:09.506Z,185
2017-09-25T13:38:10.251Z,191
2017-09-25T13:39:10.916Z,196
2017-09-25T13:40:11.580Z,202
2017-09-25T13:41:12.242Z,208
2017-09-25T13:42:12.904Z,213
2017-09-25T13:43:13.617Z,219
2017-09-25T13:44:14.281Z,225
2017-09-25T13:45:14.945Z,225
2017-09-25T13:46:15.610Z,236
2017-09-25T13:47:16.272Z,241
2017-09-25T13:48:16.986Z,253
2017-09-25T13:49:17.651Z,258
2017-09-25T13:50:18.312Z,270
2017-09-25T13:51:18.975Z,275
2017-09-25T13:52:19.637Z,281
2017-09-25T13:53:20.350Z,292
2017-09-25T13:54:21.015Z,298
2017-09-25T13:55:21.682Z,298
2017-09-25T13:56:22.339Z,303
2017-09-25T13:57:23.002Z,309
2017-09-25T13:58:23.714Z,315
2017-09-25T14:02:21.482Z,337
2017-09-25T14:03:22.148Z,348
2017-09-25T14:04:22.861Z,360
2017-09-25T14:05:23.526Z,365
2017-09-25T14:06:24.201Z,365
2017-09-25T14:07:24.856Z,371
2017-09-25T14:08:25.519Z,376
2017-09-25T14:09:26.231Z,376
2017-09-25T14:10:26.894Z,382
2017-09-25T14:11:27.557Z,382
2017-09-25T14:12:28.220Z,388
2017-09-25T14:13:28.885Z,382
2017-09-25T14:14:29.600Z,382
2017-09-25T14:15:30.264Z,382
2017-09-25T14:16:30.931Z,382
2017-09-25T14:17:31.594Z,382
2017-09-25T14:18:32.257Z,376
2017-09-25T14:19:32.970Z,371
2017-09-25T14:20:33.637Z,365
2017-09-25T14:21:34.299Z,354
2017-09-25T14:22:34.961Z,343
2017-09-25T14:23:35.629Z,337
2017-09-25T14:24:36.348Z,326
2017-09-25T14:25:37.006Z,315